sensor_id;sensor_type;location;lat;lon;timestamp;temperature;humidity
23769;DHT22;12064;50.890;5.424;2022-12-10T00:03:57;20.40;74.20
23769;DHT22;12064;50.890;5.424;2022-12-10T00:12:48;20.30;74.40
23769;DHT22;12064;50.890;5.424;2022-12-10T00:21:43;20.30;74.40
23769;DHT22;12064;50.890;5.424;2022-12-10T00:30:34;20.30;74.10
23769;DHT22;12064;50.890;5.424;2022-12-10T00:39:27;20.50;73.50
23769;DHT22;12064;50.890;5.424;2022-12-10T00:48:33;20.40;73.60
23769;DHT22;12064;50.890;5.424;2022-12-10T00:57:35;20.30;73.50
23769;DHT22;12064;50.890;5.424;2022-12-10T01:06:49;20.20;73.80
23769;DHT22;12064;50.890;5.424;2022-12-10T01:15:40;20.30;73.60
23769;DHT22;12064;50.890;5.424;2022-12-10T01:24:35;20.40;73.10
23769;DHT22;12064;50.890;5.424;2022-12-10T01:33:28;20.30;73.40
23769;DHT22;12064;50.890;5.424;2022-12-10T01:42:19;20.10;74.20
23769;DHT22;12064;50.890;5.424;2022-12-10T01:51:34;20.10;73.50
23769;DHT22;12064;50.890;5.424;2022-12-10T02:00:28;20.00;73.60
23769;DHT22;12064;50.890;5.424;2022-12-10T02:09:27;20.10;73.20
23769;DHT22;12064;50.890;5.424;2022-12-10T02:18:35;20.20;72.90
23769;DHT22;12064;50.890;5.424;2022-12-10T02:37:04;20.00;73.20
23769;DHT22;12064;50.890;5.424;2022-12-10T02:45:58;19.90;73.40
23769;DHT22;12064;50.890;5.424;2022-12-10T02:54:52;20.00;73.30
23769;DHT22;12064;50.890;5.424;2022-12-10T03:04:45;20.20;72.80
23769;DHT22;12064;50.890;5.424;2022-12-10T03:13:19;20.10;72.80
23769;DHT22;12064;50.890;5.424;2022-12-10T03:22:17;20.00;72.90
23769;DHT22;12064;50.890;5.424;2022-12-10T03:31:12;19.90;73.00
23769;DHT22;12064;50.890;5.424;2022-12-10T03:40:06;19.90;73.30
23769;DHT22;12064;50.890;5.424;2022-12-10T03:49:00;20.00;72.90
23769;DHT22;12064;50.890;5.424;2022-12-10T03:57:51;20.00;72.60
23769;DHT22;12064;50.890;5.424;2022-12-10T04:06:46;19.90;72.80
23769;DHT22;12064;50.890;5.424;2022-12-10T04:15:39;19.80;73.10
23769;DHT22;12064;50.890;5.424;2022-12-10T04:24:48;19.80;73.30
23769;DHT22;12064;50.890;5.424;2022-12-10T04:34:21;19.80;73.00
23769;DHT22;12064;50.890;5.424;2022-12-10T04:43:12;20.00;72.50
23769;DHT22;12064;50.890;5.424;2022-12-10T04:52:12;20.10;72.30
23769;DHT22;12064;50.890;5.424;2022-12-10T05:01:04;20.60;71.10
23769;DHT22;12064;50.890;5.424;2022-12-10T05:09:57;21.10;69.70
23769;DHT22;12064;50.890;5.424;2022-12-10T05:18:49;21.50;68.70
23769;DHT22;12064;50.890;5.424;2022-12-10T05:27:40;21.80;67.90
23769;DHT22;12064;50.890;5.424;2022-12-10T05:36:38;22.00;67.30
23769;DHT22;12064;50.890;5.424;2022-12-10T05:45:31;22.30;66.80
23769;DHT22;12064;50.890;5.424;2022-12-10T05:54:23;22.30;66.90
23769;DHT22;12064;50.890;5.424;2022-12-10T06:03:13;21.90;67.60
23769;DHT22;12064;50.890;5.424;2022-12-10T06:12:18;21.70;68.30
23769;DHT22;12064;50.890;5.424;2022-12-10T06:21:13;21.60;68.70
23769;DHT22;12064;50.890;5.424;2022-12-10T06:30:04;21.80;68.20
23769;DHT22;12064;50.890;5.424;2022-12-10T06:39:01;21.90;68.00
23769;DHT22;12064;50.890;5.424;2022-12-10T06:47:55;21.70;68.60
23769;DHT22;12064;50.890;5.424;2022-12-10T06:56:45;21.70;68.60
23769;DHT22;12064;50.890;5.424;2022-12-10T07:05:38;21.80;68.10
23769;DHT22;12064;50.890;5.424;2022-12-10T07:14:29;21.90;67.90
23769;DHT22;12064;50.890;5.424;2022-12-10T07:23:21;21.70;68.50
23769;DHT22;12064;50.890;5.424;2022-12-10T07:32:12;21.70;68.40
23769;DHT22;12064;50.890;5.424;2022-12-10T07:41:04;21.90;67.20
23769;DHT22;12064;50.890;5.424;2022-12-10T07:49:55;21.90;66.20
23769;DHT22;12064;50.890;5.424;2022-12-10T07:58:46;21.70;66.80
23769;DHT22;12064;50.890;5.424;2022-12-10T08:07:36;21.50;67.40
23769;DHT22;12064;50.890;5.424;2022-12-10T08:16:28;21.40;67.90
23769;DHT22;12064;50.890;5.424;2022-12-10T08:25:19;21.50;67.70
23769;DHT22;12064;50.890;5.424;2022-12-10T08:34:16;21.60;67.70
23769;DHT22;12064;50.890;5.424;2022-12-10T08:43:08;21.40;68.20
23769;DHT22;12064;50.890;5.424;2022-12-10T08:51:59;21.30;68.40
23769;DHT22;12064;50.890;5.424;2022-12-10T09:00:49;21.50;67.80
23769;DHT22;12064;50.890;5.424;2022-12-10T09:09:40;21.50;67.90
23769;DHT22;12064;50.890;5.424;2022-12-10T09:18:31;21.30;68.30
23769;DHT22;12064;50.890;5.424;2022-12-10T09:27:21;21.30;68.50
23769;DHT22;12064;50.890;5.424;2022-12-10T09:36:13;21.50;67.90
23769;DHT22;12064;50.890;5.424;2022-12-10T09:54:30;21.30;68.60
23769;DHT22;12064;50.890;5.424;2022-12-10T10:03:21;21.30;68.60
23769;DHT22;12064;50.890;5.424;2022-12-10T10:12:18;21.50;68.00
23769;DHT22;12064;50.890;5.424;2022-12-10T10:21:25;21.40;68.40
23769;DHT22;12064;50.890;5.424;2022-12-10T10:30:18;21.30;69.50
23769;DHT22;12064;50.890;5.424;2022-12-10T10:48:16;21.50;67.90
23769;DHT22;12064;50.890;5.424;2022-12-10T10:57:41;21.30;68.20
23769;DHT22;12064;50.890;5.424;2022-12-10T11:06:32;21.60;65.30
23769;DHT22;12064;50.890;5.424;2022-12-10T11:34:06;21.30;67.30
23769;DHT22;12064;50.890;5.424;2022-12-10T11:52:28;21.70;66.80
23769;DHT22;12064;50.890;5.424;2022-12-10T12:10:53;21.40;67.70
23769;DHT22;12064;50.890;5.424;2022-12-10T12:20:05;21.50;67.40
23769;DHT22;12064;50.890;5.424;2022-12-10T12:38:30;21.40;67.70
23769;DHT22;12064;50.890;5.424;2022-12-10T13:05:49;21.70;67.60
23769;DHT22;12064;50.890;5.424;2022-12-10T13:14:56;21.70;67.60
23769;DHT22;12064;50.890;5.424;2022-12-10T13:23:52;21.50;68.20
23769;DHT22;12064;50.890;5.424;2022-12-10T13:32:46;21.40;68.30
23769;DHT22;12064;50.890;5.424;2022-12-10T13:42:26;21.70;67.70
23769;DHT22;12064;50.890;5.424;2022-12-10T14:00:20;21.90;68.20
23769;DHT22;12064;50.890;5.424;2022-12-10T14:18:12;22.00;67.50
23769;DHT22;12064;50.890;5.424;2022-12-10T14:27:24;21.80;68.10
23769;DHT22;12064;50.890;5.424;2022-12-10T14:36:30;21.60;68.50
23769;DHT22;12064;50.890;5.424;2022-12-10T14:45:45;21.60;68.50
23769;DHT22;12064;50.890;5.424;2022-12-10T14:54:47;21.80;67.90
23769;DHT22;12064;50.890;5.424;2022-12-10T15:03:44;21.60;67.80
23769;DHT22;12064;50.890;5.424;2022-12-10T15:12:41;21.50;68.30
23769;DHT22;12064;50.890;5.424;2022-12-10T15:21:42;21.60;68.10
23769;DHT22;12064;50.890;5.424;2022-12-10T15:30:36;21.70;67.60
23769;DHT22;12064;50.890;5.424;2022-12-10T15:39:32;21.50;67.80
23769;DHT22;12064;50.890;5.424;2022-12-10T15:48:30;21.40;68.30
23769;DHT22;12064;50.890;5.424;2022-12-10T15:57:29;21.50;67.90
23769;DHT22;12064;50.890;5.424;2022-12-10T16:06:21;21.80;67.80
23769;DHT22;12064;50.890;5.424;2022-12-10T16:15:17;22.00;67.40
23769;DHT22;12064;50.890;5.424;2022-12-10T16:24:11;22.70;66.10
23769;DHT22;12064;50.890;5.424;2022-12-10T16:33:02;23.10;65.50
23769;DHT22;12064;50.890;5.424;2022-12-10T16:42:10;23.60;64.70
23769;DHT22;12064;50.890;5.424;2022-12-10T16:51:01;24.30;63.00
23769;DHT22;12064;50.890;5.424;2022-12-10T16:59:52;24.40;62.80
23769;DHT22;12064;50.890;5.424;2022-12-10T17:08:43;24.60;63.70
23769;DHT22;12064;50.890;5.424;2022-12-10T17:17:37;25.10;62.60
23769;DHT22;12064;50.890;5.424;2022-12-10T17:26:46;24.60;63.90
23769;DHT22;12064;50.890;5.424;2022-12-10T17:35:38;24.20;64.50
23769;DHT22;12064;50.890;5.424;2022-12-10T17:44:58;24.30;64.70
23769;DHT22;12064;50.890;5.424;2022-12-10T17:53:48;23.20;67.20
23769;DHT22;12064;50.890;5.424;2022-12-10T18:02:39;22.50;69.20
23769;DHT22;12064;50.890;5.424;2022-12-10T18:11:33;22.40;69.30
23769;DHT22;12064;50.890;5.424;2022-12-10T18:20:36;22.40;69.20
23769;DHT22;12064;50.890;5.424;2022-12-10T18:29:36;22.70;68.80
23769;DHT22;12064;50.890;5.424;2022-12-10T18:38:27;23.20;67.90
23769;DHT22;12064;50.890;5.424;2022-12-10T18:47:21;23.70;66.10
23769;DHT22;12064;50.890;5.424;2022-12-10T18:56:23;24.30;64.50
23769;DHT22;12064;50.890;5.424;2022-12-10T19:05:19;24.60;63.70
23769;DHT22;12064;50.890;5.424;2022-12-10T19:14:10;24.70;64.00
23769;DHT22;12064;50.890;5.424;2022-12-10T19:23:04;24.10;64.80
23769;DHT22;12064;50.890;5.424;2022-12-10T19:31:55;24.60;63.70
23769;DHT22;12064;50.890;5.424;2022-12-10T19:40:45;24.70;64.00
23769;DHT22;12064;50.890;5.424;2022-12-10T19:49:36;24.80;63.50
23769;DHT22;12064;50.890;5.424;2022-12-10T19:58:27;24.60;64.10
23769;DHT22;12064;50.890;5.424;2022-12-10T20:07:17;24.70;63.90
23769;DHT22;12064;50.890;5.424;2022-12-10T20:16:15;24.70;63.90
23769;DHT22;12064;50.890;5.424;2022-12-10T20:25:15;24.30;64.90
23769;DHT22;12064;50.890;5.424;2022-12-10T20:34:09;24.50;65.50
23769;DHT22;12064;50.890;5.424;2022-12-10T20:43:00;25.00;64.10
23769;DHT22;12064;50.890;5.424;2022-12-10T20:51:51;25.20;63.60
23769;DHT22;12064;50.890;5.424;2022-12-10T21:00:42;25.10;63.50
23769;DHT22;12064;50.890;5.424;2022-12-10T21:09:36;25.00;64.50
23769;DHT22;12064;50.890;5.424;2022-12-10T21:18:27;25.30;63.70
23769;DHT22;12064;50.890;5.424;2022-12-10T21:27:19;25.40;63.50
23769;DHT22;12064;50.890;5.424;2022-12-10T21:36:20;25.60;62.80
23769;DHT22;12064;50.890;5.424;2022-12-10T21:45:11;25.50;62.70
23769;DHT22;12064;50.890;5.424;2022-12-10T21:54:03;25.40;62.80
23769;DHT22;12064;50.890;5.424;2022-12-10T22:02:54;25.40;63.10
23769;DHT22;12064;50.890;5.424;2022-12-10T22:11:44;25.50;63.00
23769;DHT22;12064;50.890;5.424;2022-12-10T22:20:39;25.40;63.40
23769;DHT22;12064;50.890;5.424;2022-12-10T22:29:30;25.40;64.10
23769;DHT22;12064;50.890;5.424;2022-12-10T22:38:23;25.40;64.00
23769;DHT22;12064;50.890;5.424;2022-12-10T22:47:15;25.30;64.10
23769;DHT22;12064;50.890;5.424;2022-12-10T22:56:07;25.40;64.20
23769;DHT22;12064;50.890;5.424;2022-12-10T23:04:58;25.20;63.90
23769;DHT22;12064;50.890;5.424;2022-12-10T23:13:50;24.00;66.70
23769;DHT22;12064;50.890;5.424;2022-12-10T23:22:40;22.70;70.50
23769;DHT22;12064;50.890;5.424;2022-12-10T23:31:38;22.00;72.30
23769;DHT22;12064;50.890;5.424;2022-12-10T23:40:29;21.70;72.50
23769;DHT22;12064;50.890;5.424;2022-12-10T23:49:21;21.70;72.50
23769;DHT22;12064;50.890;5.424;2022-12-10T23:58:12;21.40;72.70
